sensor_id;sensor_type;location;lat;lon;timestamp;pressure;altitude;pressure_sealevel;temperature;humidity
12879;BME280;20617;49.476;10.986;2023-03-04T00:01:42;98730.97;;;2.62;100.00
12879;BME280;20617;49.476;10.986;2023-03-04T00:03:47;98733.59;;;2.48;100.00
12879;BME280;20617;49.476;10.986;2023-03-04T00:05:52;98738.69;;;2.50;100.00
12879;BME280;20617;49.476;10.986;2023-03-04T00:07:59;98730.16;;;2.51;100.00
12879;BME280;20617;49.476;10.986;2023-03-04T00:10:05;98724.16;;;2.49;100.00
12879;BME280;20617;49.476;10.986;2023-03-04T00:12:10;98731.03;;;2.39;100.00
12879;BME280;20617;49.476;10.986;2023-03-04T00:14:16;98729.31;;;2.34;100.00
12879;BME280;20617;49.476;10.986;2023-03-04T00:16:21;98734.47;;;2.24;100.00
12879;BME280;20617;49.476;10.986;2023-03-04T00:18:28;98735.34;;;2.25;100.00
12879;BME280;20617;49.476;10.986;2023-03-04T00:20:35;98733.63;;;2.12;100.00
12879;BME280;20617;49.476;10.986;2023-03-04T00:22:40;98731.06;;;2.12;100.00
12879;BME280;20617;49.476;10.986;2023-03-04T00:24:48;98728.50;;;2.07;100.00
12879;BME280;20617;49.476;10.986;2023-03-04T00:26:52;98736.19;;;2.02;100.00
12879;BME280;20617;49.476;10.986;2023-03-04T00:28:57;98735.34;;;2.00;100.00
12879;BME280;20617;49.476;10.986;2023-03-04T00:31:02;98735.34;;;1.97;100.00
12879;BME280;20617;49.476;10.986;2023-03-04T00:33:07;98737.91;;;1.88;100.00
12879;BME280;20617;49.476;10.986;2023-03-04T00:35:12;98734.47;;;1.85;100.00
12879;BME280;20617;49.476;10.986;2023-03-04T00:37:17;98734.47;;;1.78;100.00
12879;BME280;20617;49.476;10.986;2023-03-04T00:39:22;98733.63;;;1.78;100.00
12879;BME280;20617;49.476;10.986;2023-03-04T00:41:29;98729.34;;;1.78;100.00
12879;BME280;20617;49.476;10.986;2023-03-04T00:43:34;98732.78;;;1.82;100.00
12879;BME280;20617;49.476;10.986;2023-03-04T00:45:39;98738.78;;;1.78;100.00
12879;BME280;20617;49.476;10.986;2023-03-04T00:47:44;98737.88;;;1.68;100.00
12879;BME280;20617;49.476;10.986;2023-03-04T00:49:48;98737.91;;;1.64;100.00
12879;BME280;20617;49.476;10.986;2023-03-04T00:51:53;98742.16;;;1.60;100.00
12879;BME280;20617;49.476;10.986;2023-03-04T00:53:58;98751.56;;;1.59;100.00
12879;BME280;20617;49.476;10.986;2023-03-04T00:56:03;98744.69;;;1.57;100.00
12879;BME280;20617;49.476;10.986;2023-03-04T00:58:11;98747.25;;;1.54;100.00
12879;BME280;20617;49.476;10.986;2023-03-04T01:00:19;98743.84;;;1.59;100.00
12879;BME280;20617;49.476;10.986;2023-03-04T01:02:24;98736.16;;;1.59;100.00
12879;BME280;20617;49.476;10.986;2023-03-04T01:04:29;98739.59;;;1.68;100.00
12879;BME280;20617;49.476;10.986;2023-03-04T01:06:34;98737.06;;;1.78;100.00
12879;BME280;20617;49.476;10.986;2023-03-04T01:08:39;98729.34;;;1.74;100.00
12879;BME280;20617;49.476;10.986;2023-03-04T01:10:45;98724.19;;;1.68;100.00
12879;BME280;20617;49.476;10.986;2023-03-04T01:12:50;98731.91;;;1.63;100.00
12879;BME280;20617;49.476;10.986;2023-03-04T01:14:57;98725.91;;;1.55;100.00
12879;BME280;20617;49.476;10.986;2023-03-04T01:17:02;98725.91;;;1.46;100.00
12879;BME280;20617;49.476;10.986;2023-03-04T01:19:07;98727.59;;;1.38;100.00
12879;BME280;20617;49.476;10.986;2023-03-04T01:21:12;98719.91;;;1.41;100.00
12879;BME280;20617;49.476;10.986;2023-03-04T01:23:17;98724.16;;;1.42;100.00
12879;BME280;20617;49.476;10.986;2023-03-04T01:25:22;98724.16;;;1.45;100.00
12879;BME280;20617;49.476;10.986;2023-03-04T01:27:27;98724.16;;;1.39;100.00
12879;BME280;20617;49.476;10.986;2023-03-04T01:29:32;98720.75;;;1.43;100.00
12879;BME280;20617;49.476;10.986;2023-03-04T01:31:39;98722.47;;;1.44;100.00
12879;BME280;20617;49.476;10.986;2023-03-04T01:33:44;98719.03;;;1.39;100.00
12879;BME280;20617;49.476;10.986;2023-03-04T01:35:49;98717.28;;;1.27;100.00
12879;BME280;20617;49.476;10.986;2023-03-04T01:37:54;98724.13;;;1.17;100.00
12879;BME280;20617;49.476;10.986;2023-03-04T01:39:58;98719.81;;;1.11;100.00
12879;BME280;20617;49.476;10.986;2023-03-04T01:42:03;98724.06;;;1.06;100.00
12879;BME280;20617;49.476;10.986;2023-03-04T01:44:09;98719.78;;;1.02;100.00
12879;BME280;20617;49.476;10.986;2023-03-04T01:46:14;98715.50;;;0.94;100.00
12879;BME280;20617;49.476;10.986;2023-03-04T01:48:24;98715.47;;;0.90;100.00
12879;BME280;20617;49.476;10.986;2023-03-04T01:50:32;98710.28;;;0.81;100.00
12879;BME280;20617;49.476;10.986;2023-03-04T01:52:38;98713.75;;;0.86;100.00
12879;BME280;20617;49.476;10.986;2023-03-04T01:54:43;98715.50;;;0.94;100.00
12879;BME280;20617;49.476;10.986;2023-03-04T01:56:50;98712.06;;;0.95;100.00
12879;BME280;20617;49.476;10.986;2023-03-04T01:59:07;98712.94;;;0.98;100.00
12879;BME280;20617;49.476;10.986;2023-03-04T02:01:13;98709.50;;;0.92;100.00
12879;BME280;20617;49.476;10.986;2023-03-04T02:03:18;98705.25;;;0.97;100.00
12879;BME280;20617;49.476;10.986;2023-03-04T02:05:27;98710.34;;;0.89;100.00
12879;BME280;20617;49.476;10.986;2023-03-04T02:07:32;98707.78;;;0.89;100.00
12879;BME280;20617;49.476;10.986;2023-03-04T02:09:37;98700.06;;;0.86;100.00
12879;BME280;20617;49.476;10.986;2023-03-04T02:11:43;98702.59;;;0.77;100.00
12879;BME280;20617;49.476;10.986;2023-03-04T02:13:50;98703.44;;;0.71;100.00
12879;BME280;20617;49.476;10.986;2023-03-04T02:15:55;98706.84;;;0.68;100.00
12879;BME280;20617;49.476;10.986;2023-03-04T02:18:01;98698.28;;;0.70;100.00
12879;BME280;20617;49.476;10.986;2023-03-04T02:20:14;98699.16;;;0.72;100.00
12879;BME280;20617;49.476;10.986;2023-03-04T02:22:24;98695.78;;;0.80;100.00
12879;BME280;20617;49.476;10.986;2023-03-04T02:24:32;98694.97;;;0.90;100.00
12879;BME280;20617;49.476;10.986;2023-03-04T02:26:43;98685.59;;;0.99;100.00
12879;BME280;20617;49.476;10.986;2023-03-04T02:28:50;98685.59;;;1.00;100.00
12879;BME280;20617;49.476;10.986;2023-03-04T02:30:56;98687.31;;;1.06;100.00
12879;BME280;20617;49.476;10.986;2023-03-04T02:33:01;98682.19;;;1.10;100.00
12879;BME280;20617;49.476;10.986;2023-03-04T02:35:13;98683.06;;;1.16;100.00
12879;BME280;20617;49.476;10.986;2023-03-04T02:37:22;98677.94;;;1.12;100.00
12879;BME280;20617;49.476;10.986;2023-03-04T02:39:31;98676.22;;;1.13;100.00
12879;BME280;20617;49.476;10.986;2023-03-04T02:41:37;98677.09;;;1.15;100.00
12879;BME280;20617;49.476;10.986;2023-03-04T02:43:52;98671.97;;;1.18;100.00
12879;BME280;20617;49.476;10.986;2023-03-04T02:45:57;98674.53;;;1.13;100.00
12879;BME280;20617;49.476;10.986;2023-03-04T02:48:06;98672.78;;;1.02;100.00
12879;BME280;20617;49.476;10.986;2023-03-04T02:50:11;98673.59;;;0.93;100.00
12879;BME280;20617;49.476;10.986;2023-03-04T02:52:18;98677.84;;;0.80;100.00
12879;BME280;20617;49.476;10.986;2023-03-04T02:54:23;98670.16;;;0.77;100.00
12879;BME280;20617;49.476;10.986;2023-03-04T02:56:28;98672.69;;;0.71;100.00
12879;BME280;20617;49.476;10.986;2023-03-04T02:58:34;98675.22;;;0.65;100.00
12879;BME280;20617;49.476;10.986;2023-03-04T03:00:42;98666.66;;;0.60;100.00
12879;BME280;20617;49.476;10.986;2023-03-04T03:02:47;98675.16;;;0.54;100.00
12879;BME280;20617;49.476;10.986;2023-03-04T03:04:52;98663.22;;;0.50;100.00
12879;BME280;20617;49.476;10.986;2023-03-04T03:07:00;98669.19;;;0.55;100.00
12879;BME280;20617;49.476;10.986;2023-03-04T03:09:06;98664.06;;;0.54;100.00
12879;BME280;20617;49.476;10.986;2023-03-04T03:11:11;98664.91;;;0.50;100.00
12879;BME280;20617;49.476;10.986;2023-03-04T03:13:15;98669.22;;;0.58;100.00
12879;BME280;20617;49.476;10.986;2023-03-04T03:15:20;98671.81;;;0.66;100.00
12879;BME280;20617;49.476;10.986;2023-03-04T03:17:28;98668.41;;;0.67;100.00
12879;BME280;20617;49.476;10.986;2023-03-04T03:19:35;98666.69;;;0.66;100.00
12879;BME280;20617;49.476;10.986;2023-03-04T03:21:41;98668.38;;;0.65;100.00
12879;BME280;20617;49.476;10.986;2023-03-04T03:23:46;98670.94;;;0.64;100.00
12879;BME280;20617;49.476;10.986;2023-03-04T03:25:51;98676.06;;;0.59;100.00
12879;BME280;20617;49.476;10.986;2023-03-04T03:27:56;98672.59;;;0.50;100.00
12879;BME280;20617;49.476;10.986;2023-03-04T03:30:01;98679.41;;;0.49;100.00
12879;BME280;20617;49.476;10.986;2023-03-04T03:32:06;98682.00;;;0.55;100.00
12879;BME280;20617;49.476;10.986;2023-03-04T03:34:13;98681.16;;;0.56;100.00
12879;BME280;20617;49.476;10.986;2023-03-04T03:36:21;98682.78;;;0.40;100.00
12879;BME280;20617;49.476;10.986;2023-03-04T03:38:26;98684.47;;;0.32;100.00
12879;BME280;20617;49.476;10.986;2023-03-04T03:40:31;98683.66;;;0.38;100.00
12879;BME280;20617;49.476;10.986;2023-03-04T03:42:36;98682.81;;;0.48;100.00
12879;BME280;20617;49.476;10.986;2023-03-04T03:44:41;98681.97;;;0.52;100.00
12879;BME280;20617;49.476;10.986;2023-03-04T03:46:46;98682.88;;;0.57;100.00
12879;BME280;20617;49.476;10.986;2023-03-04T03:48:50;98682.88;;;0.59;100.00
12879;BME280;20617;49.476;10.986;2023-03-04T03:50:58;98681.97;;;0.52;100.00
12879;BME280;20617;49.476;10.986;2023-03-04T03:53:03;98686.25;;;0.55;100.00
12879;BME280;20617;49.476;10.986;2023-03-04T03:55:08;98688.88;;;0.59;100.00
12879;BME280;20617;49.476;10.986;2023-03-04T03:57:13;98687.97;;;0.53;100.00
12879;BME280;20617;49.476;10.986;2023-03-04T03:59:18;98688.88;;;0.62;100.00
12879;BME280;20617;49.476;10.986;2023-03-04T04:01:24;98694.03;;;0.67;100.00
12879;BME280;20617;49.476;10.986;2023-03-04T04:03:29;98694.84;;;0.61;100.00
12879;BME280;20617;49.476;10.986;2023-03-04T04:05:34;98700.81;;;0.60;100.00
12879;BME280;20617;49.476;10.986;2023-03-04T04:07:42;98699.97;;;0.66;100.00
12879;BME280;20617;49.476;10.986;2023-03-04T04:09:46;98703.41;;;0.68;100.00
12879;BME280;20617;49.476;10.986;2023-03-04T04:11:51;98709.34;;;0.59;100.00
12879;BME280;20617;49.476;10.986;2023-03-04T04:13:56;98705.97;;;0.62;100.00
12879;BME280;20617;49.476;10.986;2023-03-04T04:16:01;98702.53;;;0.60;100.00
12879;BME280;20617;49.476;10.986;2023-03-04T04:18:06;98709.38;;;0.65;100.00
12879;BME280;20617;49.476;10.986;2023-03-04T04:20:11;98704.28;;;0.72;100.00
12879;BME280;20617;49.476;10.986;2023-03-04T04:22:16;98701.72;;;0.75;100.00
12879;BME280;20617;49.476;10.986;2023-03-04T04:24:25;98713.72;;;0.76;100.00
12879;BME280;20617;49.476;10.986;2023-03-04T04:26:30;98706.88;;;0.73;100.00
12879;BME280;20617;49.476;10.986;2023-03-04T04:28:34;98713.66;;;0.70;100.00
12879;BME280;20617;49.476;10.986;2023-03-04T04:30:39;98706.91;;;0.82;100.00
12879;BME280;20617;49.476;10.986;2023-03-04T04:32:44;98717.91;;;0.61;100.00
12879;BME280;20617;49.476;10.986;2023-03-04T04:34:49;98710.25;;;0.69;100.00
12879;BME280;20617;49.476;10.986;2023-03-04T04:36:54;98720.41;;;0.55;100.00
12879;BME280;20617;49.476;10.986;2023-03-04T04:38:59;98711.91;;;0.61;100.00
12879;BME280;20617;49.476;10.986;2023-03-04T04:41:18;98719.66;;;0.68;100.00
12879;BME280;20617;49.476;10.986;2023-03-04T04:43:23;98722.28;;;0.82;100.00
12879;BME280;20617;49.476;10.986;2023-03-04T04:45:28;98720.53;;;0.77;100.00
12879;BME280;20617;49.476;10.986;2023-03-04T04:47:35;98722.25;;;0.76;100.00
12879;BME280;20617;49.476;10.986;2023-03-04T04:49:40;98724.84;;;0.82;100.00
12879;BME280;20617;49.476;10.986;2023-03-04T04:51:45;98720.59;;;0.95;100.00
12879;BME280;20617;49.476;10.986;2023-03-04T04:53:50;98716.38;;;1.03;100.00
12879;BME280;20617;49.476;10.986;2023-03-04T04:55:55;98713.84;;;1.11;100.00
12879;BME280;20617;49.476;10.986;2023-03-04T04:58:04;98701.03;;;1.16;100.00
12879;BME280;20617;49.476;10.986;2023-03-04T05:00:10;98716.41;;;1.11;100.00
12879;BME280;20617;49.476;10.986;2023-03-04T05:02:16;98712.13;;;1.11;100.00
12879;BME280;20617;49.476;10.986;2023-03-04T05:04:21;98712.13;;;1.11;100.00
12879;BME280;20617;49.476;10.986;2023-03-04T05:06:26;98713.84;;;1.14;100.00
12879;BME280;20617;49.476;10.986;2023-03-04T05:08:34;98714.72;;;1.24;100.00
12879;BME280;20617;49.476;10.986;2023-03-04T05:10:39;98713.00;;;1.17;100.00
12879;BME280;20617;49.476;10.986;2023-03-04T05:12:44;98718.13;;;1.17;100.00
12879;BME280;20617;49.476;10.986;2023-03-04T05:14:53;98724.81;;;0.84;100.00
12879;BME280;20617;49.476;10.986;2023-03-04T05:16:58;98729.06;;;0.74;100.00
12879;BME280;20617;49.476;10.986;2023-03-04T05:19:02;98727.38;;;0.76;100.00
12879;BME280;20617;49.476;10.986;2023-03-04T05:21:08;98725.69;;;0.86;100.00
12879;BME280;20617;49.476;10.986;2023-03-04T05:23:13;98732.59;;;0.99;100.00
12879;BME280;20617;49.476;10.986;2023-03-04T05:25:17;98731.72;;;0.99;100.00
12879;BME280;20617;49.476;10.986;2023-03-04T05:27:22;98731.72;;;0.91;100.00
12879;BME280;20617;49.476;10.986;2023-03-04T05:29:27;98735.16;;;0.96;100.00
12879;BME280;20617;49.476;10.986;2023-03-04T05:31:35;98734.34;;;1.11;100.00
12879;BME280;20617;49.476;10.986;2023-03-04T05:33:40;98732.66;;;1.15;100.00
12879;BME280;20617;49.476;10.986;2023-03-04T05:35:45;98735.16;;;0.96;100.00
12879;BME280;20617;49.476;10.986;2023-03-04T05:37:51;98738.47;;;0.75;100.00
12879;BME280;20617;49.476;10.986;2023-03-04T05:39:56;98747.69;;;0.45;100.00
12879;BME280;20617;49.476;10.986;2023-03-04T05:42:00;98745.97;;;0.46;100.00
12879;BME280;20617;49.476;10.986;2023-03-04T05:44:05;98745.13;;;0.42;100.00
12879;BME280;20617;49.476;10.986;2023-03-04T05:46:12;98745.88;;;0.28;100.00
12879;BME280;20617;49.476;10.986;2023-03-04T05:48:20;98746.72;;;0.27;100.00
12879;BME280;20617;49.476;10.986;2023-03-04T05:50:25;98742.56;;;0.41;100.00
12879;BME280;20617;49.476;10.986;2023-03-04T05:52:30;98736.56;;;0.43;100.00
12879;BME280;20617;49.476;10.986;2023-03-04T05:54:35;98746.84;;;0.47;100.00
12879;BME280;20617;49.476;10.986;2023-03-04T05:56:40;98745.13;;;0.44;100.00
12879;BME280;20617;49.476;10.986;2023-03-04T05:58:45;98747.63;;;0.33;100.00
12879;BME280;20617;49.476;10.986;2023-03-04T06:00:50;98746.81;;;0.39;100.00
12879;BME280;20617;49.476;10.986;2023-03-04T06:02:55;98761.28;;;0.34;100.00
12879;BME280;20617;49.476;10.986;2023-03-04T06:05:02;98752.81;;;0.44;100.00
12879;BME280;20617;49.476;10.986;2023-03-04T06:07:07;98764.81;;;0.54;100.00
12879;BME280;20617;49.476;10.986;2023-03-04T06:09:12;98752.88;;;0.56;100.00
12879;BME280;20617;49.476;10.986;2023-03-04T06:11:17;98752.84;;;0.50;100.00
12879;BME280;20617;49.476;10.986;2023-03-04T06:13:22;98761.22;;;0.25;100.00
12879;BME280;20617;49.476;10.986;2023-03-04T06:15:27;98762.91;;;0.26;100.00
12879;BME280;20617;49.476;10.986;2023-03-04T06:17:33;98760.31;;;0.19;100.00
12879;BME280;20617;49.476;10.986;2023-03-04T06:19:37;98768.75;;;0.03;100.00
12879;BME280;20617;49.476;10.986;2023-03-04T06:21:45;98768.88;;;0.21;100.00
12879;BME280;20617;49.476;10.986;2023-03-04T06:23:50;98766.31;;;0.21;100.00
12879;BME280;20617;49.476;10.986;2023-03-04T06:25:56;98769.81;;;0.34;100.00
12879;BME280;20617;49.476;10.986;2023-03-04T06:28:01;98766.44;;;0.40;100.00
12879;BME280;20617;49.476;10.986;2023-03-04T06:30:08;98772.44;;;0.42;100.00
12879;BME280;20617;49.476;10.986;2023-03-04T06:32:13;98770.72;;;0.38;100.00
12879;BME280;20617;49.476;10.986;2023-03-04T06:34:18;98768.19;;;0.44;100.00
12879;BME280;20617;49.476;10.986;2023-03-04T06:36:23;98773.28;;;0.38;100.00
12879;BME280;20617;49.476;10.986;2023-03-04T06:38:30;98775.13;;;0.62;100.00
12879;BME280;20617;49.476;10.986;2023-03-04T06:40:35;98770.00;;;0.59;100.00
12879;BME280;20617;49.476;10.986;2023-03-04T06:42:40;98768.34;;;0.67;100.00
12879;BME280;20617;49.476;10.986;2023-03-04T06:44:47;98765.78;;;0.70;100.00
12879;BME280;20617;49.476;10.986;2023-03-04T06:46:52;98763.22;;;0.67;100.00
12879;BME280;20617;49.476;10.986;2023-03-04T06:48:57;98764.94;;;0.74;100.00
12879;BME280;20617;49.476;10.986;2023-03-04T06:51:06;98767.56;;;0.89;100.00
12879;BME280;20617;49.476;10.986;2023-03-04T06:53:11;98771.81;;;0.80;100.00
12879;BME280;20617;49.476;10.986;2023-03-04T06:55:19;98774.34;;;0.78;100.00
12879;BME280;20617;49.476;10.986;2023-03-04T06:57:24;98775.22;;;0.83;100.00
12879;BME280;20617;49.476;10.986;2023-03-04T06:59:29;98783.81;;;0.88;100.00
12879;BME280;20617;49.476;10.986;2023-03-04T07:01:34;98774.47;;;0.97;100.00
12879;BME280;20617;49.476;10.986;2023-03-04T07:03:39;98780.44;;;1.00;100.00
12879;BME280;20617;49.476;10.986;2023-03-04T07:05:44;98783.09;;;1.14;100.00
12879;BME280;20617;49.476;10.986;2023-03-04T07:07:49;98783.16;;;1.34;100.00
12879;BME280;20617;49.476;10.986;2023-03-04T07:09:53;98786.56;;;1.36;100.00
12879;BME280;20617;49.476;10.986;2023-03-04T07:12:02;98781.44;;;1.38;100.00
12879;BME280;20617;49.476;10.986;2023-03-04T07:14:06;98779.78;;;1.46;100.00
12879;BME280;20617;49.476;10.986;2023-03-04T07:16:13;98776.31;;;1.45;100.00
12879;BME280;20617;49.476;10.986;2023-03-04T07:18:18;98778.88;;;1.45;100.00
12879;BME280;20617;49.476;10.986;2023-03-04T07:20:23;98787.47;;;1.43;100.00
12879;BME280;20617;49.476;10.986;2023-03-04T07:22:32;98781.50;;;1.51;100.00
12879;BME280;20617;49.476;10.986;2023-03-04T07:24:37;98784.09;;;1.70;100.00
12879;BME280;20617;49.476;10.986;2023-03-04T07:26:42;98779.84;;;1.78;100.00
12879;BME280;20617;49.476;10.986;2023-03-04T07:28:49;98784.94;;;1.64;100.00
12879;BME280;20617;49.476;10.986;2023-03-04T07:30:55;98783.19;;;1.57;100.00
12879;BME280;20617;49.476;10.986;2023-03-04T07:33:00;98786.56;;;1.42;100.00
12879;BME280;20617;49.476;10.986;2023-03-04T07:35:06;98789.13;;;1.39;100.00
12879;BME280;20617;49.476;10.986;2023-03-04T07:37:11;98790.00;;;1.41;100.00
12879;BME280;20617;49.476;10.986;2023-03-04T07:39:15;98788.25;;;1.32;100.00
12879;BME280;20617;49.476;10.986;2023-03-04T07:41:22;98789.97;;;1.29;100.00
12879;BME280;20617;49.476;10.986;2023-03-04T07:43:27;98787.41;;;1.29;100.00
12879;BME280;20617;49.476;10.986;2023-03-04T07:45:35;98790.84;;;1.34;100.00
12879;BME280;20617;49.476;10.986;2023-03-04T07:47:40;98788.31;;;1.43;100.00
12879;BME280;20617;49.476;10.986;2023-03-04T07:49:45;98790.06;;;1.55;100.00
12879;BME280;20617;49.476;10.986;2023-03-04T07:51:50;98792.59;;;1.49;100.00
12879;BME280;20617;49.476;10.986;2023-03-04T07:53:57;98789.19;;;1.62;100.00
12879;BME280;20617;49.476;10.986;2023-03-04T07:56:02;98790.94;;;1.74;100.00
12879;BME280;20617;49.476;10.986;2023-03-04T07:58:07;98785.81;;;1.72;100.00
12879;BME280;20617;49.476;10.986;2023-03-04T08:00:15;98790.06;;;1.64;100.00
12879;BME280;20617;49.476;10.986;2023-03-04T08:02:22;98783.22;;;1.65;100.00
12879;BME280;20617;49.476;10.986;2023-03-04T08:04:27;98787.53;;;1.72;100.00
12879;BME280;20617;49.476;10.986;2023-03-04T08:06:32;98780.66;;;1.65;100.00
12879;BME280;20617;49.476;10.986;2023-03-04T08:08:38;98779.81;;;1.70;100.00
12879;BME280;20617;49.476;10.986;2023-03-04T08:10:44;98786.66;;;1.77;100.00
12879;BME280;20617;49.476;10.986;2023-03-04T08:12:48;98784.09;;;1.73;100.00
12879;BME280;20617;49.476;10.986;2023-03-04T08:14:53;98783.22;;;1.63;100.00
12879;BME280;20617;49.476;10.986;2023-03-04T08:16:58;98792.66;;;1.73;100.00
12879;BME280;20617;49.476;10.986;2023-03-04T08:19:06;98786.69;;;1.90;100.00
12879;BME280;20617;49.476;10.986;2023-03-04T08:21:12;98778.09;;;1.80;100.00
12879;BME280;20617;49.476;10.986;2023-03-04T08:23:17;98778.97;;;1.88;100.00
12879;BME280;20617;49.476;10.986;2023-03-04T08:25:22;98775.56;;;1.92;100.00
12879;BME280;20617;49.476;10.986;2023-03-04T08:27:27;98773.84;;;1.87;100.00
12879;BME280;20617;49.476;10.986;2023-03-04T08:29:34;98779.84;;;1.96;100.00
12879;BME280;20617;49.476;10.986;2023-03-04T08:31:39;98778.97;;;1.94;100.00
12879;BME280;20617;49.476;10.986;2023-03-04T08:33:49;98778.16;;;1.92;100.00
12879;BME280;20617;49.476;10.986;2023-03-04T08:35:56;98774.72;;;1.90;100.00
12879;BME280;20617;49.476;10.986;2023-03-04T08:38:01;98780.72;;;1.92;100.00
12879;BME280;20617;49.476;10.986;2023-03-04T08:40:07;98778.13;;;1.94;100.00
12879;BME280;20617;49.476;10.986;2023-03-04T08:42:12;98777.28;;;1.96;100.00
12879;BME280;20617;49.476;10.986;2023-03-04T08:44:17;98779.00;;;2.11;100.00
12879;BME280;20617;49.476;10.986;2023-03-04T08:46:22;98773.84;;;2.14;100.00
12879;BME280;20617;49.476;10.986;2023-03-04T08:48:27;98774.72;;;2.13;100.00
12879;BME280;20617;49.476;10.986;2023-03-04T08:50:32;98776.44;;;2.19;100.00
12879;BME280;20617;49.476;10.986;2023-03-04T08:52:40;98777.28;;;2.01;100.00
12879;BME280;20617;49.476;10.986;2023-03-04T08:54:45;98778.97;;;1.88;100.00
12879;BME280;20617;49.476;10.986;2023-03-04T08:56:51;98773.81;;;1.77;100.00
12879;BME280;20617;49.476;10.986;2023-03-04T08:58:55;98782.41;;;1.89;100.00
12879;BME280;20617;49.476;10.986;2023-03-04T09:01:01;98785.81;;;1.78;100.00
12879;BME280;20617;49.476;10.986;2023-03-04T09:03:06;98785.84;;;1.89;100.00
12879;BME280;20617;49.476;10.986;2023-03-04T09:05:11;98788.38;;;1.81;100.00
12879;BME280;20617;49.476;10.986;2023-03-04T09:07:18;98784.13;;;1.84;100.00
12879;BME280;20617;49.476;10.986;2023-03-04T09:09:26;98782.41;;;1.87;100.00
12879;BME280;20617;49.476;10.986;2023-03-04T09:11:33;98780.69;;;1.94;100.00
12879;BME280;20617;49.476;10.986;2023-03-04T09:13:39;98778.97;;;1.88;100.00
12879;BME280;20617;49.476;10.986;2023-03-04T09:15:44;98782.41;;;1.99;100.00
12879;BME280;20617;49.476;10.986;2023-03-04T09:17:50;98781.56;;;2.07;100.00
12879;BME280;20617;49.476;10.986;2023-03-04T09:19:54;98792.69;;;2.18;100.00
12879;BME280;20617;49.476;10.986;2023-03-04T09:21:59;98788.41;;;2.24;100.00
12879;BME280;20617;49.476;10.986;2023-03-04T09:24:04;98786.69;;;2.33;100.00
12879;BME280;20617;49.476;10.986;2023-03-04T09:26:19;98779.84;;;2.48;100.00
12879;BME280;20617;49.476;10.986;2023-03-04T09:28:25;98780.69;;;2.49;100.00
12879;BME280;20617;49.476;10.986;2023-03-04T09:30:30;98784.97;;;2.38;100.00
12879;BME280;20617;49.476;10.986;2023-03-04T09:32:35;98791.84;;;2.48;100.00
12879;BME280;20617;49.476;10.986;2023-03-04T09:34:39;98789.25;;;2.49;100.00
12879;BME280;20617;49.476;10.986;2023-03-04T09:36:44;98784.97;;;2.55;100.00
12879;BME280;20617;49.476;10.986;2023-03-04T09:38:49;98782.38;;;2.47;100.00
12879;BME280;20617;49.476;10.986;2023-03-04T09:41:05;98788.41;;;2.51;100.00
12879;BME280;20617;49.476;10.986;2023-03-04T09:43:18;98786.69;;;2.51;100.00
12879;BME280;20617;49.476;10.986;2023-03-04T09:45:27;98787.53;;;2.55;100.00
12879;BME280;20617;49.476;10.986;2023-03-04T09:47:35;98792.66;;;2.62;100.00
12879;BME280;20617;49.476;10.986;2023-03-04T09:49:43;98787.50;;;2.68;100.00
12879;BME280;20617;49.476;10.986;2023-03-04T09:51:58;98781.53;;;2.54;100.00
12879;BME280;20617;49.476;10.986;2023-03-04T09:54:06;98786.66;;;2.56;100.00
12879;BME280;20617;49.476;10.986;2023-03-04T09:56:12;98789.25;;;2.57;100.00
12879;BME280;20617;49.476;10.986;2023-03-04T09:58:27;98781.50;;;2.66;100.00
12879;BME280;20617;49.476;10.986;2023-03-04T10:00:39;98796.94;;;2.68;100.00
12879;BME280;20617;49.476;10.986;2023-03-04T10:02:54;98788.38;;;2.66;100.00
12879;BME280;20617;49.476;10.986;2023-03-04T10:05:05;98789.22;;;2.72;100.00
12879;BME280;20617;49.476;10.986;2023-03-04T10:07:16;98783.22;;;2.75;100.00
12879;BME280;20617;49.476;10.986;2023-03-04T10:09:25;98782.34;;;2.73;100.00
12879;BME280;20617;49.476;10.986;2023-03-04T10:11:37;98784.06;;;2.72;100.00
12879;BME280;20617;49.476;10.986;2023-03-04T10:13:59;98775.50;;;2.83;100.00
12879;BME280;20617;49.476;10.986;2023-03-04T10:16:08;98772.06;;;2.81;100.00
12879;BME280;20617;49.476;10.986;2023-03-04T10:18:21;98770.31;;;2.95;100.00
12879;BME280;20617;49.476;10.986;2023-03-04T10:20:34;98766.88;;;2.94;100.00
12879;BME280;20617;49.476;10.986;2023-03-04T10:22:44;98766.88;;;2.98;100.00
12879;BME280;20617;49.476;10.986;2023-03-04T10:24:56;98760.81;;;3.05;100.00
12879;BME280;20617;49.476;10.986;2023-03-04T10:27:04;98763.41;;;3.09;100.00
12879;BME280;20617;49.476;10.986;2023-03-04T10:29:15;98759.84;;;3.33;100.00
12879;BME280;20617;49.476;10.986;2023-03-04T10:31:28;98760.66;;;3.40;100.00
12879;BME280;20617;49.476;10.986;2023-03-04T10:33:37;98762.38;;;3.41;100.00
12879;BME280;20617;49.476;10.986;2023-03-04T10:35:45;98756.44;;;3.33;100.00
12879;BME280;20617;49.476;10.986;2023-03-04T10:37:52;98768.53;;;3.08;100.00
12879;BME280;20617;49.476;10.986;2023-03-04T10:39:57;98763.41;;;3.06;100.00
12879;BME280;20617;49.476;10.986;2023-03-04T10:42:08;98759.09;;;3.11;100.00
12879;BME280;20617;49.476;10.986;2023-03-04T10:44:29;98753.06;;;3.17;100.00
12879;BME280;20617;49.476;10.986;2023-03-04T10:46:37;98757.31;;;3.24;100.00
12879;BME280;20617;49.476;10.986;2023-03-04T10:48:42;98745.25;;;3.38;100.00
12879;BME280;20617;49.476;10.986;2023-03-04T10:50:47;98749.47;;;3.49;100.00
12879;BME280;20617;49.476;10.986;2023-03-04T10:52:53;98752.16;;;3.32;100.00
12879;BME280;20617;49.476;10.986;2023-03-04T10:54:59;98749.50;;;3.44;100.00
12879;BME280;20617;49.476;10.986;2023-03-04T10:57:13;98753.78;;;3.42;100.00
12879;BME280;20617;49.476;10.986;2023-03-04T10:59:34;98752.06;;;3.47;100.00
12879;BME280;20617;49.476;10.986;2023-03-04T11:01:42;98751.13;;;3.57;100.00